sensor_id;sensor_type;location;lat;lon;timestamp;P1;durP1;ratioP1;P2;durP2;ratioP2
10201;SDS011;5143;42.584;23.164;2023-03-19T00:01:59;7.40;;;5.40;;
10201;SDS011;5143;42.584;23.164;2023-03-19T00:04:28;8.43;;;4.87;;
10201;SDS011;5143;42.584;23.164;2023-03-19T00:06:54;11.47;;;6.40;;
10201;SDS011;5143;42.584;23.164;2023-03-19T00:09:21;7.60;;;5.13;;
10201;SDS011;5143;42.584;23.164;2023-03-19T00:11:48;12.17;;;5.73;;
10201;SDS011;5143;42.584;23.164;2023-03-19T00:14:15;8.33;;;5.33;;
10201;SDS011;5143;42.584;23.164;2023-03-19T00:16:42;7.53;;;5.20;;
10201;SDS011;5143;42.584;23.164;2023-03-19T00:19:09;7.20;;;4.57;;
10201;SDS011;5143;42.584;23.164;2023-03-19T00:21:37;8.50;;;5.20;;
10201;SDS011;5143;42.584;23.164;2023-03-19T00:24:04;7.73;;;4.80;;
10201;SDS011;5143;42.584;23.164;2023-03-19T00:26:31;6.33;;;4.60;;
10201;SDS011;5143;42.584;23.164;2023-03-19T00:28:59;8.77;;;5.30;;
10201;SDS011;5143;42.584;23.164;2023-03-19T00:31:27;11.30;;;7.10;;
10201;SDS011;5143;42.584;23.164;2023-03-19T00:33:55;17.23;;;8.93;;
10201;SDS011;5143;42.584;23.164;2023-03-19T00:36:22;15.03;;;7.30;;
10201;SDS011;5143;42.584;23.164;2023-03-19T00:38:51;11.67;;;6.10;;
10201;SDS011;5143;42.584;23.164;2023-03-19T00:41:18;10.17;;;6.67;;
10201;SDS011;5143;42.584;23.164;2023-03-19T00:43:45;11.40;;;5.87;;
10201;SDS011;5143;42.584;23.164;2023-03-19T00:46:12;14.60;;;6.90;;
10201;SDS011;5143;42.584;23.164;2023-03-19T00:48:39;10.40;;;6.07;;
10201;SDS011;5143;42.584;23.164;2023-03-19T00:51:07;8.57;;;5.47;;
10201;SDS011;5143;42.584;23.164;2023-03-19T00:53:36;12.13;;;5.03;;
10201;SDS011;5143;42.584;23.164;2023-03-19T00:56:05;9.97;;;6.03;;
10201;SDS011;5143;42.584;23.164;2023-03-19T00:58:32;14.10;;;5.57;;
10201;SDS011;5143;42.584;23.164;2023-03-19T01:00:58;9.30;;;5.00;;
10201;SDS011;5143;42.584;23.164;2023-03-19T01:03:26;6.37;;;4.50;;
10201;SDS011;5143;42.584;23.164;2023-03-19T01:05:52;9.30;;;5.10;;
10201;SDS011;5143;42.584;23.164;2023-03-19T01:08:19;17.03;;;4.80;;
10201;SDS011;5143;42.584;23.164;2023-03-19T01:10:46;7.13;;;4.60;;
10201;SDS011;5143;42.584;23.164;2023-03-19T01:13:14;6.50;;;4.67;;
10201;SDS011;5143;42.584;23.164;2023-03-19T01:15:42;7.33;;;4.87;;
10201;SDS011;5143;42.584;23.164;2023-03-19T01:18:09;6.73;;;4.73;;
10201;SDS011;5143;42.584;23.164;2023-03-19T01:20:38;7.50;;;4.87;;
10201;SDS011;5143;42.584;23.164;2023-03-19T01:23:06;6.57;;;4.30;;
10201;SDS011;5143;42.584;23.164;2023-03-19T01:25:33;8.80;;;4.83;;
10201;SDS011;5143;42.584;23.164;2023-03-19T01:28:00;9.70;;;5.10;;
10201;SDS011;5143;42.584;23.164;2023-03-19T01:30:29;8.83;;;5.70;;
10201;SDS011;5143;42.584;23.164;2023-03-19T01:32:55;11.77;;;7.87;;
10201;SDS011;5143;42.584;23.164;2023-03-19T01:35:22;10.67;;;7.00;;
10201;SDS011;5143;42.584;23.164;2023-03-19T01:37:49;11.00;;;6.53;;
10201;SDS011;5143;42.584;23.164;2023-03-19T01:40:16;8.23;;;5.33;;
10201;SDS011;5143;42.584;23.164;2023-03-19T01:42:50;8.27;;;5.77;;
10201;SDS011;5143;42.584;23.164;2023-03-19T01:48:02;7.53;;;4.70;;
10201;SDS011;5143;42.584;23.164;2023-03-19T01:50:31;6.80;;;5.23;;
10201;SDS011;5143;42.584;23.164;2023-03-19T01:53:05;7.07;;;4.70;;
10201;SDS011;5143;42.584;23.164;2023-03-19T01:55:32;5.90;;;3.57;;
10201;SDS011;5143;42.584;23.164;2023-03-19T01:57:59;6.23;;;4.57;;
10201;SDS011;5143;42.584;23.164;2023-03-19T02:00:26;10.47;;;5.07;;
10201;SDS011;5143;42.584;23.164;2023-03-19T02:02:57;6.40;;;4.33;;
10201;SDS011;5143;42.584;23.164;2023-03-19T02:05:26;6.10;;;4.30;;
10201;SDS011;5143;42.584;23.164;2023-03-19T02:07:53;6.10;;;4.50;;
10201;SDS011;5143;42.584;23.164;2023-03-19T02:10:23;6.97;;;4.33;;
10201;SDS011;5143;42.584;23.164;2023-03-19T02:12:51;7.13;;;4.37;;
10201;SDS011;5143;42.584;23.164;2023-03-19T02:15:18;5.23;;;4.20;;
10201;SDS011;5143;42.584;23.164;2023-03-19T02:17:45;9.13;;;4.33;;
10201;SDS011;5143;42.584;23.164;2023-03-19T02:20:14;5.57;;;4.53;;
10201;SDS011;5143;42.584;23.164;2023-03-19T02:22:49;5.70;;;3.73;;
10201;SDS011;5143;42.584;23.164;2023-03-19T02:25:23;5.60;;;3.23;;
10201;SDS011;5143;42.584;23.164;2023-03-19T02:27:57;5.00;;;3.47;;
10201;SDS011;5143;42.584;23.164;2023-03-19T02:30:27;4.83;;;3.63;;
10201;SDS011;5143;42.584;23.164;2023-03-19T02:32:56;3.73;;;2.70;;
10201;SDS011;5143;42.584;23.164;2023-03-19T02:35:22;6.80;;;3.77;;
10201;SDS011;5143;42.584;23.164;2023-03-19T02:37:50;6.93;;;3.90;;
10201;SDS011;5143;42.584;23.164;2023-03-19T02:40:17;7.63;;;4.30;;
10201;SDS011;5143;42.584;23.164;2023-03-19T02:42:47;5.90;;;4.30;;
10201;SDS011;5143;42.584;23.164;2023-03-19T02:45:16;8.70;;;3.90;;
10201;SDS011;5143;42.584;23.164;2023-03-19T02:47:43;6.43;;;3.43;;
10201;SDS011;5143;42.584;23.164;2023-03-19T02:50:10;5.30;;;3.47;;
10201;SDS011;5143;42.584;23.164;2023-03-19T02:52:37;4.80;;;3.40;;
10201;SDS011;5143;42.584;23.164;2023-03-19T02:55:04;5.47;;;3.77;;
10201;SDS011;5143;42.584;23.164;2023-03-19T02:57:32;4.80;;;3.70;;
10201;SDS011;5143;42.584;23.164;2023-03-19T02:59:58;5.20;;;3.67;;
10201;SDS011;5143;42.584;23.164;2023-03-19T03:02:26;5.23;;;3.40;;
10201;SDS011;5143;42.584;23.164;2023-03-19T03:04:53;5.43;;;4.00;;
10201;SDS011;5143;42.584;23.164;2023-03-19T03:07:20;9.07;;;3.93;;
10201;SDS011;5143;42.584;23.164;2023-03-19T03:09:47;5.67;;;4.07;;
10201;SDS011;5143;42.584;23.164;2023-03-19T03:12:14;4.80;;;3.53;;
10201;SDS011;5143;42.584;23.164;2023-03-19T03:14:40;5.63;;;3.77;;
10201;SDS011;5143;42.584;23.164;2023-03-19T03:17:07;5.43;;;3.93;;
10201;SDS011;5143;42.584;23.164;2023-03-19T03:19:35;6.37;;;3.80;;
10201;SDS011;5143;42.584;23.164;2023-03-19T03:22:02;7.00;;;3.50;;
10201;SDS011;5143;42.584;23.164;2023-03-19T03:24:29;5.43;;;4.10;;
10201;SDS011;5143;42.584;23.164;2023-03-19T03:26:56;12.57;;;4.40;;
10201;SDS011;5143;42.584;23.164;2023-03-19T03:29:23;4.70;;;3.80;;
10201;SDS011;5143;42.584;23.164;2023-03-19T03:31:50;5.83;;;3.77;;
10201;SDS011;5143;42.584;23.164;2023-03-19T03:34:17;4.40;;;3.20;;
10201;SDS011;5143;42.584;23.164;2023-03-19T03:36:45;5.27;;;3.50;;
10201;SDS011;5143;42.584;23.164;2023-03-19T03:39:12;4.50;;;3.03;;
10201;SDS011;5143;42.584;23.164;2023-03-19T03:41:39;4.13;;;3.50;;
10201;SDS011;5143;42.584;23.164;2023-03-19T03:44:06;4.77;;;3.30;;
10201;SDS011;5143;42.584;23.164;2023-03-19T03:46:33;5.10;;;3.70;;
10201;SDS011;5143;42.584;23.164;2023-03-19T03:49:00;4.23;;;2.97;;
10201;SDS011;5143;42.584;23.164;2023-03-19T03:51:27;4.93;;;3.57;;
10201;SDS011;5143;42.584;23.164;2023-03-19T03:53:55;3.73;;;2.80;;
10201;SDS011;5143;42.584;23.164;2023-03-19T03:56:22;5.30;;;3.00;;
10201;SDS011;5143;42.584;23.164;2023-03-19T03:58:48;3.33;;;2.60;;
10201;SDS011;5143;42.584;23.164;2023-03-19T04:01:15;4.13;;;3.17;;
10201;SDS011;5143;42.584;23.164;2023-03-19T04:03:42;4.83;;;3.60;;
10201;SDS011;5143;42.584;23.164;2023-03-19T04:06:10;5.60;;;3.43;;
10201;SDS011;5143;42.584;23.164;2023-03-19T04:08:39;5.10;;;3.37;;
10201;SDS011;5143;42.584;23.164;2023-03-19T04:11:08;4.60;;;3.60;;
10201;SDS011;5143;42.584;23.164;2023-03-19T04:13:35;4.97;;;3.57;;
10201;SDS011;5143;42.584;23.164;2023-03-19T04:16:02;4.50;;;3.47;;
10201;SDS011;5143;42.584;23.164;2023-03-19T04:18:29;6.40;;;3.80;;
10201;SDS011;5143;42.584;23.164;2023-03-19T04:20:56;6.20;;;4.20;;
10201;SDS011;5143;42.584;23.164;2023-03-19T04:23:23;5.53;;;3.70;;
10201;SDS011;5143;42.584;23.164;2023-03-19T04:25:50;14.17;;;8.00;;
10201;SDS011;5143;42.584;23.164;2023-03-19T04:28:18;9.73;;;6.20;;
10201;SDS011;5143;42.584;23.164;2023-03-19T04:30:45;8.57;;;4.43;;
10201;SDS011;5143;42.584;23.164;2023-03-19T04:33:11;6.73;;;4.43;;
10201;SDS011;5143;42.584;23.164;2023-03-19T04:35:38;7.50;;;4.50;;
10201;SDS011;5143;42.584;23.164;2023-03-19T04:38:05;10.27;;;4.53;;
10201;SDS011;5143;42.584;23.164;2023-03-19T04:40:32;7.10;;;3.63;;
10201;SDS011;5143;42.584;23.164;2023-03-19T04:42:58;5.53;;;3.37;;
10201;SDS011;5143;42.584;23.164;2023-03-19T04:45:26;5.50;;;4.03;;
10201;SDS011;5143;42.584;23.164;2023-03-19T04:47:53;6.07;;;3.90;;
10201;SDS011;5143;42.584;23.164;2023-03-19T04:50:20;5.37;;;3.63;;
10201;SDS011;5143;42.584;23.164;2023-03-19T04:52:48;5.20;;;3.70;;
10201;SDS011;5143;42.584;23.164;2023-03-19T04:55:14;5.77;;;4.20;;
10201;SDS011;5143;42.584;23.164;2023-03-19T04:57:42;5.30;;;3.77;;
10201;SDS011;5143;42.584;23.164;2023-03-19T05:00:09;7.10;;;3.90;;
10201;SDS011;5143;42.584;23.164;2023-03-19T05:02:40;7.93;;;4.77;;
10201;SDS011;5143;42.584;23.164;2023-03-19T05:05:07;6.27;;;3.87;;
10201;SDS011;5143;42.584;23.164;2023-03-19T05:07:35;4.60;;;3.43;;
10201;SDS011;5143;42.584;23.164;2023-03-19T05:10:02;4.20;;;3.57;;
10201;SDS011;5143;42.584;23.164;2023-03-19T05:12:29;5.20;;;3.83;;
10201;SDS011;5143;42.584;23.164;2023-03-19T05:14:56;6.23;;;4.17;;
10201;SDS011;5143;42.584;23.164;2023-03-19T05:17:22;6.20;;;4.10;;
10201;SDS011;5143;42.584;23.164;2023-03-19T05:19:50;8.23;;;4.60;;
10201;SDS011;5143;42.584;23.164;2023-03-19T05:22:17;6.57;;;4.03;;
10201;SDS011;5143;42.584;23.164;2023-03-19T05:24:45;10.43;;;4.70;;
10201;SDS011;5143;42.584;23.164;2023-03-19T05:27:12;6.00;;;4.23;;
10201;SDS011;5143;42.584;23.164;2023-03-19T05:29:38;9.77;;;4.57;;
10201;SDS011;5143;42.584;23.164;2023-03-19T05:32:06;6.67;;;4.37;;
10201;SDS011;5143;42.584;23.164;2023-03-19T05:34:34;7.50;;;4.70;;
10201;SDS011;5143;42.584;23.164;2023-03-19T05:37:04;9.13;;;4.37;;
10201;SDS011;5143;42.584;23.164;2023-03-19T05:39:31;4.40;;;3.53;;
10201;SDS011;5143;42.584;23.164;2023-03-19T05:41:58;6.77;;;4.40;;
10201;SDS011;5143;42.584;23.164;2023-03-19T05:44:24;6.27;;;4.67;;
10201;SDS011;5143;42.584;23.164;2023-03-19T05:46:51;7.50;;;5.23;;
10201;SDS011;5143;42.584;23.164;2023-03-19T05:49:18;8.27;;;5.47;;
10201;SDS011;5143;42.584;23.164;2023-03-19T05:51:46;11.87;;;6.27;;
10201;SDS011;5143;42.584;23.164;2023-03-19T05:54:14;15.27;;;7.07;;
10201;SDS011;5143;42.584;23.164;2023-03-19T05:56:40;11.77;;;5.97;;
10201;SDS011;5143;42.584;23.164;2023-03-19T05:59:07;9.33;;;6.00;;
10201;SDS011;5143;42.584;23.164;2023-03-19T06:01:34;10.53;;;7.47;;
10201;SDS011;5143;42.584;23.164;2023-03-19T06:04:01;11.40;;;8.23;;
10201;SDS011;5143;42.584;23.164;2023-03-19T06:06:27;13.03;;;8.60;;
10201;SDS011;5143;42.584;23.164;2023-03-19T06:08:54;18.90;;;10.00;;
10201;SDS011;5143;42.584;23.164;2023-03-19T06:11:22;15.00;;;9.50;;
10201;SDS011;5143;42.584;23.164;2023-03-19T06:13:49;15.17;;;9.43;;
10201;SDS011;5143;42.584;23.164;2023-03-19T06:16:15;16.43;;;10.30;;
10201;SDS011;5143;42.584;23.164;2023-03-19T06:18:42;24.83;;;15.13;;
10201;SDS011;5143;42.584;23.164;2023-03-19T06:21:09;22.70;;;13.67;;
10201;SDS011;5143;42.584;23.164;2023-03-19T06:23:36;15.73;;;11.33;;
10201;SDS011;5143;42.584;23.164;2023-03-19T06:26:03;17.00;;;9.47;;
10201;SDS011;5143;42.584;23.164;2023-03-19T06:28:32;11.40;;;7.17;;
10201;SDS011;5143;42.584;23.164;2023-03-19T06:30:59;14.27;;;6.60;;
10201;SDS011;5143;42.584;23.164;2023-03-19T06:33:26;9.57;;;6.80;;
10201;SDS011;5143;42.584;23.164;2023-03-19T06:35:56;9.90;;;6.30;;
10201;SDS011;5143;42.584;23.164;2023-03-19T06:38:23;12.23;;;6.37;;
10201;SDS011;5143;42.584;23.164;2023-03-19T06:40:50;13.10;;;6.23;;
10201;SDS011;5143;42.584;23.164;2023-03-19T06:43:17;10.87;;;6.73;;
10201;SDS011;5143;42.584;23.164;2023-03-19T06:45:45;12.13;;;6.43;;
10201;SDS011;5143;42.584;23.164;2023-03-19T06:48:12;10.70;;;6.30;;
10201;SDS011;5143;42.584;23.164;2023-03-19T06:50:39;10.23;;;6.43;;
10201;SDS011;5143;42.584;23.164;2023-03-19T06:53:06;10.93;;;5.90;;
10201;SDS011;5143;42.584;23.164;2023-03-19T06:55:32;12.77;;;6.33;;
10201;SDS011;5143;42.584;23.164;2023-03-19T06:57:59;8.37;;;5.33;;
10201;SDS011;5143;42.584;23.164;2023-03-19T07:00:26;7.53;;;5.13;;
10201;SDS011;5143;42.584;23.164;2023-03-19T07:02:54;11.97;;;6.97;;
10201;SDS011;5143;42.584;23.164;2023-03-19T07:05:21;8.37;;;5.67;;
10201;SDS011;5143;42.584;23.164;2023-03-19T07:07:48;9.73;;;6.10;;
10201;SDS011;5143;42.584;23.164;2023-03-19T07:10:16;8.93;;;5.77;;
10201;SDS011;5143;42.584;23.164;2023-03-19T07:12:43;12.73;;;6.43;;
10201;SDS011;5143;42.584;23.164;2023-03-19T07:15:10;10.50;;;6.30;;
10201;SDS011;5143;42.584;23.164;2023-03-19T07:17:37;12.47;;;6.40;;
10201;SDS011;5143;42.584;23.164;2023-03-19T07:20:06;10.17;;;7.43;;
10201;SDS011;5143;42.584;23.164;2023-03-19T07:22:33;12.67;;;5.47;;
10201;SDS011;5143;42.584;23.164;2023-03-19T07:25:00;11.03;;;5.20;;
10201;SDS011;5143;42.584;23.164;2023-03-19T07:27:26;10.17;;;5.70;;
10201;SDS011;5143;42.584;23.164;2023-03-19T07:29:53;9.53;;;5.33;;
10201;SDS011;5143;42.584;23.164;2023-03-19T07:32:20;12.87;;;6.10;;
10201;SDS011;5143;42.584;23.164;2023-03-19T07:34:47;19.43;;;6.17;;
10201;SDS011;5143;42.584;23.164;2023-03-19T07:37:16;9.07;;;4.33;;
10201;SDS011;5143;42.584;23.164;2023-03-19T07:39:42;12.47;;;5.30;;
10201;SDS011;5143;42.584;23.164;2023-03-19T07:42:10;17.60;;;5.37;;
10201;SDS011;5143;42.584;23.164;2023-03-19T07:44:36;14.73;;;6.40;;
10201;SDS011;5143;42.584;23.164;2023-03-19T07:47:03;9.17;;;5.70;;
10201;SDS011;5143;42.584;23.164;2023-03-19T07:49:30;11.13;;;5.50;;
10201;SDS011;5143;42.584;23.164;2023-03-19T07:51:57;12.90;;;5.67;;
10201;SDS011;5143;42.584;23.164;2023-03-19T07:54:25;8.60;;;5.00;;
10201;SDS011;5143;42.584;23.164;2023-03-19T07:56:51;8.40;;;5.00;;
10201;SDS011;5143;42.584;23.164;2023-03-19T07:59:18;13.03;;;4.87;;
10201;SDS011;5143;42.584;23.164;2023-03-19T08:01:45;4.97;;;3.30;;
10201;SDS011;5143;42.584;23.164;2023-03-19T08:04:12;9.17;;;3.47;;
10201;SDS011;5143;42.584;23.164;2023-03-19T08:06:38;7.10;;;3.23;;
10201;SDS011;5143;42.584;23.164;2023-03-19T08:09:06;7.27;;;3.53;;
10201;SDS011;5143;42.584;23.164;2023-03-19T08:11:34;3.77;;;2.50;;
10201;SDS011;5143;42.584;23.164;2023-03-19T08:14:02;5.33;;;2.70;;
10201;SDS011;5143;42.584;23.164;2023-03-19T08:16:28;8.23;;;2.60;;
10201;SDS011;5143;42.584;23.164;2023-03-19T08:18:55;4.37;;;2.50;;
10201;SDS011;5143;42.584;23.164;2023-03-19T08:21:22;4.37;;;2.87;;
10201;SDS011;5143;42.584;23.164;2023-03-19T08:23:49;6.40;;;3.50;;
10201;SDS011;5143;42.584;23.164;2023-03-19T08:26:15;6.20;;;3.23;;
10201;SDS011;5143;42.584;23.164;2023-03-19T08:28:44;8.17;;;3.73;;
10201;SDS011;5143;42.584;23.164;2023-03-19T08:31:11;6.57;;;3.43;;
10201;SDS011;5143;42.584;23.164;2023-03-19T08:33:39;7.13;;;3.50;;
10201;SDS011;5143;42.584;23.164;2023-03-19T08:36:07;7.53;;;3.57;;
10201;SDS011;5143;42.584;23.164;2023-03-19T08:38:35;8.20;;;3.40;;
10201;SDS011;5143;42.584;23.164;2023-03-19T08:41:01;6.63;;;3.93;;
10201;SDS011;5143;42.584;23.164;2023-03-19T08:43:28;7.47;;;4.10;;
10201;SDS011;5143;42.584;23.164;2023-03-19T08:45:57;5.17;;;3.30;;
10201;SDS011;5143;42.584;23.164;2023-03-19T08:48:25;7.70;;;3.00;;
10201;SDS011;5143;42.584;23.164;2023-03-19T08:50:52;6.20;;;2.87;;
10201;SDS011;5143;42.584;23.164;2023-03-19T08:53:19;6.00;;;3.10;;
10201;SDS011;5143;42.584;23.164;2023-03-19T08:55:49;5.73;;;2.80;;
10201;SDS011;5143;42.584;23.164;2023-03-19T08:58:17;4.77;;;2.80;;
10201;SDS011;5143;42.584;23.164;2023-03-19T09:00:44;4.60;;;2.83;;
10201;SDS011;5143;42.584;23.164;2023-03-19T09:03:12;4.43;;;2.67;;
10201;SDS011;5143;42.584;23.164;2023-03-19T09:05:39;15.37;;;10.23;;
10201;SDS011;5143;42.584;23.164;2023-03-19T09:08:06;5.97;;;2.60;;
10201;SDS011;5143;42.584;23.164;2023-03-19T09:10:33;4.10;;;2.23;;
10201;SDS011;5143;42.584;23.164;2023-03-19T09:13:00;3.93;;;2.40;;
10201;SDS011;5143;42.584;23.164;2023-03-19T09:15:27;4.30;;;2.43;;
10201;SDS011;5143;42.584;23.164;2023-03-19T09:17:53;4.40;;;2.17;;
10201;SDS011;5143;42.584;23.164;2023-03-19T09:20:22;5.70;;;2.70;;
10201;SDS011;5143;42.584;23.164;2023-03-19T09:22:49;17.17;;;6.53;;
10201;SDS011;5143;42.584;23.164;2023-03-19T09:25:15;7.30;;;2.87;;
10201;SDS011;5143;42.584;23.164;2023-03-19T09:27:42;8.83;;;3.20;;
10201;SDS011;5143;42.584;23.164;2023-03-19T09:30:09;11.90;;;3.27;;
10201;SDS011;5143;42.584;23.164;2023-03-19T09:32:37;9.90;;;3.50;;
10201;SDS011;5143;42.584;23.164;2023-03-19T09:35:04;8.20;;;4.07;;
10201;SDS011;5143;42.584;23.164;2023-03-19T09:37:33;9.40;;;3.70;;
10201;SDS011;5143;42.584;23.164;2023-03-19T09:40:00;15.47;;;4.20;;
10201;SDS011;5143;42.584;23.164;2023-03-19T09:42:31;10.20;;;4.63;;
10201;SDS011;5143;42.584;23.164;2023-03-19T09:45:11;19.77;;;9.40;;
10201;SDS011;5143;42.584;23.164;2023-03-19T09:47:40;11.57;;;4.77;;
10201;SDS011;5143;42.584;23.164;2023-03-19T09:50:10;11.03;;;4.00;;
10201;SDS011;5143;42.584;23.164;2023-03-19T09:52:42;15.23;;;4.17;;
10201;SDS011;5143;42.584;23.164;2023-03-19T09:55:16;11.13;;;3.67;;
10201;SDS011;5143;42.584;23.164;2023-03-19T09:58:04;7.27;;;3.57;;
10201;SDS011;5143;42.584;23.164;2023-03-19T10:00:38;7.57;;;4.10;;
10201;SDS011;5143;42.584;23.164;2023-03-19T10:03:10;9.73;;;3.50;;
10201;SDS011;5143;42.584;23.164;2023-03-19T10:05:51;9.43;;;3.70;;
10201;SDS011;5143;42.584;23.164;2023-03-19T10:08:28;10.23;;;3.70;;
10201;SDS011;5143;42.584;23.164;2023-03-19T10:11:06;15.83;;;4.17;;
10201;SDS011;5143;42.584;23.164;2023-03-19T10:13:51;29.37;;;4.70;;
10201;SDS011;5143;42.584;23.164;2023-03-19T10:16:25;6.80;;;3.43;;
10201;SDS011;5143;42.584;23.164;2023-03-19T10:18:54;9.63;;;3.80;;
10201;SDS011;5143;42.584;23.164;2023-03-19T10:21:24;13.37;;;3.70;;
10201;SDS011;5143;42.584;23.164;2023-03-19T10:23:58;11.93;;;3.43;;
10201;SDS011;5143;42.584;23.164;2023-03-19T10:26:29;8.60;;;3.50;;
10201;SDS011;5143;42.584;23.164;2023-03-19T10:29:01;9.33;;;3.60;;
10201;SDS011;5143;42.584;23.164;2023-03-19T10:31:36;13.83;;;3.70;;
10201;SDS011;5143;42.584;23.164;2023-03-19T10:34:19;7.50;;;3.00;;
10201;SDS011;5143;42.584;23.164;2023-03-19T10:36:57;12.03;;;3.73;;
10201;SDS011;5143;42.584;23.164;2023-03-19T10:39:26;13.17;;;3.03;;
10201;SDS011;5143;42.584;23.164;2023-03-19T10:41:56;6.90;;;3.67;;
10201;SDS011;5143;42.584;23.164;2023-03-19T10:44:34;8.30;;;3.60;;
10201;SDS011;5143;42.584;23.164;2023-03-19T10:47:10;10.93;;;3.40;;
10201;SDS011;5143;42.584;23.164;2023-03-19T10:49:38;8.10;;;3.00;;
10201;SDS011;5143;42.584;23.164;2023-03-19T10:52:05;12.70;;;3.17;;
10201;SDS011;5143;42.584;23.164;2023-03-19T10:54:43;5.83;;;2.73;;
10201;SDS011;5143;42.584;23.164;2023-03-19T10:57:20;10.50;;;3.03;;
10201;SDS011;5143;42.584;23.164;2023-03-19T10:59:49;5.10;;;2.50;;
10201;SDS011;5143;42.584;23.164;2023-03-19T11:02:17;6.57;;;1.93;;
10201;SDS011;5143;42.584;23.164;2023-03-19T11:04:47;2.90;;;1.83;;
10201;SDS011;5143;42.584;23.164;2023-03-19T11:07:16;6.53;;;2.10;;
10201;SDS011;5143;42.584;23.164;2023-03-19T11:09:47;5.63;;;4.07;;
10201;SDS011;5143;42.584;23.164;2023-03-19T11:12:16;4.30;;;1.87;;
10201;SDS011;5143;42.584;23.164;2023-03-19T11:14:45;1.90;;;1.40;;
10201;SDS011;5143;42.584;23.164;2023-03-19T11:17:19;8.57;;;2.10;;
10201;SDS011;5143;42.584;23.164;2023-03-19T11:19:48;1.50;;;1.37;;
10201;SDS011;5143;42.584;23.164;2023-03-19T11:22:21;2.27;;;1.60;;
10201;SDS011;5143;42.584;23.164;2023-03-19T11:24:52;2.50;;;1.33;;
10201;SDS011;5143;42.584;23.164;2023-03-19T11:27:27;3.00;;;1.60;;
10201;SDS011;5143;42.584;23.164;2023-03-19T11:29:55;3.20;;;1.60;;
10201;SDS011;5143;42.584;23.164;2023-03-19T11:32:32;2.90;;;1.50;;
10201;SDS011;5143;42.584;23.164;2023-03-19T11:35:16;2.17;;;1.63;;
10201;SDS011;5143;42.584;23.164;2023-03-19T11:37:49;1.93;;;1.40;;
10201;SDS011;5143;42.584;23.164;2023-03-19T11:40:23;2.80;;;1.20;;
10201;SDS011;5143;42.584;23.164;2023-03-19T11:46:06;2.10;;;1.20;;
10201;SDS011;5143;42.584;23.164;2023-03-19T11:48:42;1.40;;;1.20;;
10201;SDS011;5143;42.584;23.164;2023-03-19T11:51:24;2.47;;;1.67;;
10201;SDS011;5143;42.584;23.164;2023-03-19T11:53:58;1.50;;;1.20;;
10201;SDS011;5143;42.584;23.164;2023-03-19T11:56:34;4.80;;;1.50;;
10201;SDS011;5143;42.584;23.164;2023-03-19T12:05:18;3.20;;;1.40;;
10201;SDS011;5143;42.584;23.164;2023-03-19T12:08:04;4.60;;;1.60;;
10201;SDS011;5143;42.584;23.164;2023-03-19T12:10:40;5.37;;;1.73;;
10201;SDS011;5143;42.584;23.164;2023-03-19T12:13:19;6.47;;;1.50;;
10201;SDS011;5143;42.584;23.164;2023-03-19T12:16:00;2.17;;;1.70;;
10201;SDS011;5143;42.584;23.164;2023-03-19T12:18:40;4.67;;;1.80;;
10201;SDS011;5143;42.584;23.164;2023-03-19T12:21:19;2.73;;;1.67;;
10201;SDS011;5143;42.584;23.164;2023-03-19T12:23:58;8.37;;;1.50;;
10201;SDS011;5143;42.584;23.164;2023-03-19T12:26:32;2.17;;;1.73;;
10201;SDS011;5143;42.584;23.164;2023-03-19T12:29:12;3.63;;;1.37;;
10201;SDS011;5143;42.584;23.164;2023-03-19T12:31:54;4.20;;;1.80;;
10201;SDS011;5143;42.584;23.164;2023-03-19T12:34:32;1.70;;;1.50;;
10201;SDS011;5143;42.584;23.164;2023-03-19T12:37:07;5.37;;;2.20;;
10201;SDS011;5143;42.584;23.164;2023-03-19T12:39:43;3.03;;;1.50;;
10201;SDS011;5143;42.584;23.164;2023-03-19T12:42:18;2.27;;;1.47;;
10201;SDS011;5143;42.584;23.164;2023-03-19T12:44:50;2.30;;;1.50;;
10201;SDS011;5143;42.584;23.164;2023-03-19T12:47:21;3.43;;;1.70;;
10201;SDS011;5143;42.584;23.164;2023-03-19T12:49:52;5.77;;;1.63;;
10201;SDS011;5143;42.584;23.164;2023-03-19T12:52:22;4.13;;;1.47;;
10201;SDS011;5143;42.584;23.164;2023-03-19T12:54:55;3.63;;;1.70;;
10201;SDS011;5143;42.584;23.164;2023-03-19T12:57:29;2.23;;;1.63;;
10201;SDS011;5143;42.584;23.164;2023-03-19T13:00:04;2.47;;;1.70;;
10201;SDS011;5143;42.584;23.164;2023-03-19T13:02:37;2.07;;;1.23;;
10201;SDS011;5143;42.584;23.164;2023-03-19T13:05:08;3.07;;;1.60;;
10201;SDS011;5143;42.584;23.164;2023-03-19T13:07:48;3.37;;;1.57;;
10201;SDS011;5143;42.584;23.164;2023-03-19T13:10:18;3.40;;;1.50;;
10201;SDS011;5143;42.584;23.164;2023-03-19T13:12:47;2.93;;;1.50;;
10201;SDS011;5143;42.584;23.164;2023-03-19T13:15:18;3.10;;;1.60;;
10201;SDS011;5143;42.584;23.164;2023-03-19T13:17:53;3.43;;;1.40;;
10201;SDS011;5143;42.584;23.164;2023-03-19T13:20:27;3.57;;;1.30;;
10201;SDS011;5143;42.584;23.164;2023-03-19T13:23:13;2.67;;;1.80;;
10201;SDS011;5143;42.584;23.164;2023-03-19T13:25:46;3.40;;;1.70;;
10201;SDS011;5143;42.584;23.164;2023-03-19T13:28:17;2.43;;;1.50;;
10201;SDS011;5143;42.584;23.164;2023-03-19T13:30:59;2.40;;;1.50;;
10201;SDS011;5143;42.584;23.164;2023-03-19T13:33:27;4.53;;;2.10;;
10201;SDS011;5143;42.584;23.164;2023-03-19T13:35:56;3.53;;;1.47;;
10201;SDS011;5143;42.584;23.164;2023-03-19T13:38:26;2.27;;;1.60;;
10201;SDS011;5143;42.584;23.164;2023-03-19T13:41:04;4.10;;;2.00;;
10201;SDS011;5143;42.584;23.164;2023-03-19T13:43:51;3.87;;;1.70;;
10201;SDS011;5143;42.584;23.164;2023-03-19T13:46:33;4.67;;;2.00;;
10201;SDS011;5143;42.584;23.164;2023-03-19T13:49:21;2.50;;;1.43;;
10201;SDS011;5143;42.584;23.164;2023-03-19T13:51:53;3.57;;;1.93;;
10201;SDS011;5143;42.584;23.164;2023-03-19T13:54:30;5.57;;;2.10;;
10201;SDS011;5143;42.584;23.164;2023-03-19T13:57:05;8.33;;;2.00;;
10201;SDS011;5143;42.584;23.164;2023-03-19T13:59:48;3.87;;;2.03;;
10201;SDS011;5143;42.584;23.164;2023-03-19T14:05:18;6.97;;;2.03;;
10201;SDS011;5143;42.584;23.164;2023-03-19T14:07:48;5.20;;;2.67;;
10201;SDS011;5143;42.584;23.164;2023-03-19T14:10:18;8.47;;;3.23;;
10201;SDS011;5143;42.584;23.164;2023-03-19T14:12:50;11.53;;;3.30;;
10201;SDS011;5143;42.584;23.164;2023-03-19T14:15:26;4.93;;;2.47;;
10201;SDS011;5143;42.584;23.164;2023-03-19T14:17:56;5.10;;;2.33;;
10201;SDS011;5143;42.584;23.164;2023-03-19T14:20:26;7.07;;;2.90;;
10201;SDS011;5143;42.584;23.164;2023-03-19T14:23:01;12.00;;;2.70;;
10201;SDS011;5143;42.584;23.164;2023-03-19T14:25:57;9.30;;;3.23;;
10201;SDS011;5143;42.584;23.164;2023-03-19T14:28:33;9.60;;;3.43;;
10201;SDS011;5143;42.584;23.164;2023-03-19T14:31:04;10.87;;;3.33;;
10201;SDS011;5143;42.584;23.164;2023-03-19T14:33:45;10.27;;;3.20;;
10201;SDS011;5143;42.584;23.164;2023-03-19T14:36:17;11.03;;;3.30;;
10201;SDS011;5143;42.584;23.164;2023-03-19T14:38:47;7.17;;;3.20;;
10201;SDS011;5143;42.584;23.164;2023-03-19T14:41:16;7.90;;;3.13;;
10201;SDS011;5143;42.584;23.164;2023-03-19T14:43:56;10.93;;;2.97;;
10201;SDS011;5143;42.584;23.164;2023-03-19T14:46:50;7.50;;;3.43;;
10201;SDS011;5143;42.584;23.164;2023-03-19T14:52:34;6.60;;;3.03;;
10201;SDS011;5143;42.584;23.164;2023-03-19T14:55:07;18.77;;;3.60;;
10201;SDS011;5143;42.584;23.164;2023-03-19T14:57:36;7.30;;;3.03;;
10201;SDS011;5143;42.584;23.164;2023-03-19T15:00:03;6.13;;;3.30;;
10201;SDS011;5143;42.584;23.164;2023-03-19T15:02:34;11.50;;;4.70;;
10201;SDS011;5143;42.584;23.164;2023-03-19T15:05:04;5.87;;;3.30;;
10201;SDS011;5143;42.584;23.164;2023-03-19T15:07:35;4.50;;;2.80;;
10201;SDS011;5143;42.584;23.164;2023-03-19T15:10:06;5.17;;;2.50;;
10201;SDS011;5143;42.584;23.164;2023-03-19T15:15:49;7.00;;;3.03;;
10201;SDS011;5143;42.584;23.164;2023-03-19T15:18:30;7.30;;;2.30;;
10201;SDS011;5143;42.584;23.164;2023-03-19T15:20:57;5.57;;;2.47;;